SKSP

Details ICAO SKSP (ADZ)
Name GUSTAVO ROJAS PINILLA
Region Colombia
Timezone Unknown (UTC+0.0)
Plans Departing 106
Arriving 102
Stats Elevation 19 ft / 6 m (AMSL)
Location 12.583595° -81.711191°
Runways 1
Magnetic Variation 3.738° W
Sunrise 2018-05-23 11:02:07 UTC / 2018-05-23 11:02:07 Local
Sunset 2018-05-23 23:47:58 UTC / 2018-05-23 23:47:58 Local
Advertisement - Login to hide

Runways

ID Width Length Bearing (true) Bearing (mag) Surface Threshold Offset Overrun Length
06 148 ft / 45 m 7,815 ft / 2,382 m 59.54° 63.28° Asphalt 0 ft / 0 m 0 ft / 0 m
24 148 ft / 45 m 7,815 ft / 2,382 m 239.55° 243.29° Asphalt 0 ft / 0 m 180 ft / 55 m

Map

Weather


0- 5 10 15 20 25 30 35+ Temperature / ° C

Clouds and Precipitation
Forecast for 2018-05-23 12:00 UTC. Updated 2 hours ago

Ground ~20,000 ft ~40,000 ft Winds

METAR

SKSP 231300Z 09007KT 050V120 9999 SCT014 BKN080 28/25 A2989

TAF

Not found

Frequencies

Tower 118.10 MHz TWR
Approach 119.30 MHz SAN ANDRES APP
Warning: Do not use this data for real-world aviation or navigation. No guarantee of current accuracy is given.